createdAt,value
2018-08-22T00:00:50.182Z,22.06
2018-08-22T00:03:20.915Z,22.03
2018-08-22T00:05:53.548Z,22.01
2018-08-22T00:08:29.764Z,22.03
2018-08-22T00:11:00.444Z,22.01
2018-08-22T00:13:33.593Z,21.91
2018-08-22T00:16:04.270Z,21.88
2018-08-22T00:18:34.616Z,21.90
2018-08-22T00:21:06.527Z,21.83
2018-08-22T00:23:37.211Z,21.70
2018-08-22T00:26:07.821Z,21.76
2018-08-22T00:28:38.700Z,21.69
2018-08-22T00:31:09.313Z,21.65
2018-08-22T00:33:40.065Z,21.56
2018-08-22T00:36:11.711Z,21.51
2018-08-22T00:38:43.199Z,21.43
2018-08-22T00:41:15.657Z,21.41
2018-08-22T00:43:46.178Z,21.33
2018-08-22T00:46:17.158Z,21.25
2018-08-22T00:48:47.373Z,21.29
2018-08-22T00:51:19.711Z,21.41
2018-08-22T00:53:50.592Z,21.36
2018-08-22T00:56:20.709Z,21.31
2018-08-22T00:58:51.763Z,21.21
2018-08-22T01:01:22.398Z,21.20
2018-08-22T01:03:54.023Z,21.22
2018-08-22T01:06:24.550Z,21.20
2018-08-22T01:08:55.626Z,21.17
2018-08-22T01:11:26.381Z,21.11
2018-08-22T01:13:57.653Z,21.12
2018-08-22T01:16:28.793Z,21.06
2018-08-22T01:18:58.823Z,21.06
2018-08-22T01:21:29.590Z,21.03
2018-08-22T01:23:59.721Z,21.02
2018-08-22T01:26:31.425Z,20.97
2018-08-22T01:29:01.505Z,20.99
2018-08-22T01:31:31.795Z,20.97
2018-08-22T01:34:02.907Z,21.01
2018-08-22T01:36:33.287Z,21.02
2018-08-22T01:39:04.130Z,21.02
2018-08-22T01:41:35.524Z,21.01
2018-08-22T01:44:05.609Z,20.99
2018-08-22T01:46:38.133Z,20.91
2018-08-22T01:49:08.527Z,20.81
2018-08-22T01:51:41.119Z,20.87
2018-08-22T01:54:11.585Z,20.88
2018-08-22T01:56:42.422Z,21.00
2018-08-22T01:59:13.163Z,21.01
2018-08-22T02:01:43.884Z,21.08
2018-08-22T02:04:14.057Z,21.03
2018-08-22T02:06:44.741Z,21.05
2018-08-22T02:09:15.035Z,21.02
2018-08-22T02:11:45.792Z,21.01
2018-08-22T02:14:17.206Z,21.08
2018-08-22T02:16:47.644Z,21.06
2018-08-22T02:19:18.328Z,20.97
2018-08-22T02:21:48.754Z,20.99
2018-08-22T02:24:19.891Z,21.03
2018-08-22T02:26:50.035Z,21.05
2018-08-22T02:29:20.352Z,20.99
2018-08-22T02:31:51.877Z,21.10
2018-08-22T02:34:23.257Z,21.15
2018-08-22T02:36:53.335Z,21.15
2018-08-22T02:39:24.545Z,21.13
2018-08-22T02:41:55.242Z,21.16
2018-08-22T02:44:26.186Z,21.12
2018-08-22T02:46:57.190Z,21.01
2018-08-22T02:49:30.843Z,21.00
2018-08-22T02:52:02.186Z,21.04
2018-08-22T02:54:33.202Z,21.00
2018-08-22T02:57:03.597Z,21.00
2018-08-22T02:59:34.884Z,20.97
2018-08-22T03:02:06.300Z,20.95
2018-08-22T03:04:37.928Z,20.87
2018-08-22T03:07:08.962Z,20.85
2018-08-22T03:09:39.896Z,20.91
2018-08-22T03:12:13.902Z,20.80
2018-08-22T03:14:45.038Z,20.68
2018-08-22T03:17:15.148Z,20.70
2018-08-22T03:19:45.759Z,20.64
2018-08-22T03:22:16.904Z,20.61
2018-08-22T03:24:47.107Z,20.56
2018-08-22T03:27:18.068Z,20.62
2018-08-22T03:29:48.768Z,20.51
2018-08-22T03:32:20.164Z,20.47
2018-08-22T03:34:51.078Z,20.43
2018-08-22T03:37:21.422Z,20.45
2018-08-22T03:39:51.854Z,20.39
2018-08-22T03:42:22.032Z,20.42
2018-08-22T03:44:52.734Z,20.34
2018-08-22T03:47:23.297Z,20.24
2018-08-22T03:49:53.654Z,20.29
2018-08-22T03:52:26.370Z,20.35
2018-08-22T03:54:57.190Z,20.35
2018-08-22T03:57:27.598Z,20.33
2018-08-22T03:59:59.155Z,20.37
2018-08-22T04:02:30.538Z,20.38
2018-08-22T04:05:00.629Z,20.32
2018-08-22T04:07:31.546Z,20.32
2018-08-22T04:10:02.258Z,20.30
2018-08-22T04:12:33.372Z,20.30
2018-08-22T04:15:05.566Z,20.31
2018-08-22T04:17:40.292Z,20.31
2018-08-22T04:20:10.856Z,20.30
2018-08-22T04:22:42.667Z,20.27
2018-08-22T04:25:13.421Z,20.26
2018-08-22T04:27:44.486Z,20.20
2018-08-22T04:30:15.736Z,20.19
2018-08-22T04:32:46.823Z,20.22
2018-08-22T04:35:17.490Z,20.31
2018-08-22T04:37:47.650Z,20.32
2018-08-22T04:40:20.973Z,20.35
2018-08-22T04:42:51.690Z,20.44
2018-08-22T04:45:23.580Z,20.45
2018-08-22T04:47:53.826Z,20.53
2018-08-22T04:50:26.437Z,20.62
2018-08-22T04:52:56.756Z,20.68
2018-08-22T04:55:28.431Z,20.57
2018-08-22T04:57:59.737Z,20.65
2018-08-22T05:00:32.198Z,20.62
2018-08-22T05:03:04.583Z,20.67
2018-08-22T05:05:37.024Z,20.76
2018-08-22T05:08:08.810Z,20.89
2018-08-22T05:10:39.466Z,20.94
2018-08-22T05:13:10.546Z,21.02
2018-08-22T05:15:40.968Z,21.08
2018-08-22T05:18:12.086Z,21.05
2018-08-22T05:20:43.201Z,21.13
2018-08-22T05:23:13.892Z,21.24
2018-08-22T05:25:44.336Z,21.39
2018-08-22T05:28:15.106Z,21.47
2018-08-22T05:30:46.068Z,21.50
2018-08-22T05:33:16.693Z,21.50
2018-08-22T05:35:48.708Z,21.64
2018-08-22T05:38:18.910Z,21.72
2018-08-22T05:40:49.582Z,21.97
2018-08-22T05:43:19.675Z,22.54
2018-08-22T05:45:50.481Z,22.86
2018-08-22T05:48:22.335Z,23.09
2018-08-22T05:50:52.868Z,23.23
2018-08-22T05:53:23.475Z,23.54
2018-08-22T05:55:53.579Z,23.80
2018-08-22T05:58:25.238Z,23.50
2018-08-22T06:00:55.471Z,23.50
2018-08-22T06:03:26.203Z,22.87
2018-08-22T06:05:57.164Z,22.71
2018-08-22T06:08:28.209Z,22.67
2018-08-22T06:10:59.048Z,23.63
2018-08-22T06:13:29.164Z,24.10
2018-08-22T06:16:01.215Z,24.27
2018-08-22T06:18:31.903Z,24.58
2018-08-22T06:21:03.438Z,24.58
2018-08-22T06:23:34.376Z,24.88
2018-08-22T06:26:04.555Z,25.11
2018-08-22T06:28:35.590Z,25.41
2018-08-22T06:31:06.629Z,25.78
2018-08-22T06:33:38.184Z,26.34
2018-08-22T06:36:10.700Z,26.63
2018-08-22T06:38:41.945Z,27.02
2018-08-22T06:41:13.448Z,27.01
2018-08-22T06:43:45.235Z,27.24
2018-08-22T06:46:15.644Z,27.53
2018-08-22T06:48:46.966Z,27.72
2018-08-22T06:51:18.093Z,28.04
2018-08-22T06:53:48.792Z,27.77
2018-08-22T06:56:20.116Z,27.90
2018-08-22T06:58:50.817Z,27.83
2018-08-22T07:01:21.384Z,27.95
2018-08-22T07:03:52.134Z,28.00
2018-08-22T07:06:23.770Z,27.85
2018-08-22T07:08:54.950Z,27.00
2018-08-22T07:11:25.546Z,27.39
2018-08-22T07:13:55.720Z,26.90
2018-08-22T07:16:26.300Z,26.18
2018-08-22T07:18:56.409Z,25.68
2018-08-22T07:21:27.514Z,25.57
2018-08-22T07:23:58.882Z,26.07
2018-08-22T07:26:30.395Z,26.72
2018-08-22T07:29:01.983Z,27.08
2018-08-22T07:31:32.729Z,27.26
2018-08-22T07:34:04.369Z,27.67
2018-08-22T07:36:35.889Z,27.87
2018-08-22T07:39:12.317Z,27.80
2018-08-22T07:41:43.938Z,28.15
2018-08-22T07:44:15.099Z,28.58
2018-08-22T07:46:45.834Z,28.62
2018-08-22T07:49:16.321Z,28.71
2018-08-22T07:51:47.949Z,28.76
2018-08-22T07:54:19.671Z,29.47
2018-08-22T07:56:50.417Z,29.54
2018-08-22T07:59:21.604Z,29.36
2018-08-22T08:01:52.355Z,29.55
2018-08-22T08:04:22.727Z,30.13
2018-08-22T08:06:53.721Z,30.46
2018-08-22T08:09:24.167Z,30.67
2018-08-22T08:11:55.920Z,30.88
2018-08-22T08:14:26.507Z,30.93
2018-08-22T08:16:57.768Z,31.07
2018-08-22T08:19:28.741Z,31.25
2018-08-22T08:22:00.255Z,31.95
2018-08-22T08:24:30.807Z,31.16
2018-08-22T08:27:02.182Z,31.80
2018-08-22T08:29:33.356Z,31.87
2018-08-22T08:32:03.783Z,32.11
2018-08-22T08:34:35.725Z,32.40
2018-08-22T08:37:05.947Z,32.81
2018-08-22T08:39:38.879Z,32.28
2018-08-22T08:42:09.739Z,32.73
2018-08-22T08:44:41.822Z,32.32
2018-08-22T08:47:13.003Z,32.86
2018-08-22T08:49:44.236Z,33.70
2018-08-22T08:52:14.434Z,33.71
2018-08-22T08:54:46.639Z,33.13
2018-08-22T08:57:17.867Z,33.34
2018-08-22T08:59:48.162Z,32.51
2018-08-22T09:02:19.847Z,32.56
2018-08-22T09:04:51.493Z,33.86
2018-08-22T09:07:22.770Z,33.42
2018-08-22T09:09:53.234Z,32.98
2018-08-22T09:12:23.555Z,32.87
2018-08-22T09:17:24.914Z,34.82
2018-08-22T09:19:55.605Z,34.25
2018-08-22T09:22:26.014Z,35.38
2018-08-22T09:24:57.958Z,35.69
2018-08-22T09:27:28.194Z,36.41
2018-08-22T09:30:00.149Z,36.23
2018-08-22T09:32:30.685Z,36.12
2018-08-22T09:35:02.016Z,35.62
2018-08-22T09:37:33.516Z,35.78
2018-08-22T09:40:04.407Z,35.69
2018-08-22T09:42:36.358Z,36.04
2018-08-22T09:45:06.598Z,36.37
2018-08-22T09:47:37.838Z,36.79
2018-08-22T09:50:09.442Z,36.80
2018-08-22T09:52:41.106Z,37.04
2018-08-22T09:55:12.254Z,37.62
2018-08-22T09:57:44.213Z,38.04
2018-08-22T10:00:19.741Z,38.21
2018-08-22T10:02:51.161Z,38.65
2018-08-22T10:05:21.225Z,38.47
2018-08-22T10:07:52.240Z,38.21
2018-08-22T10:10:22.627Z,38.82
2018-08-22T10:12:52.794Z,38.81
2018-08-22T10:15:22.955Z,39.21
2018-08-22T10:17:55.210Z,39.42
2018-08-22T10:20:26.968Z,39.83
2018-08-22T10:22:58.422Z,39.75
2018-08-22T10:25:28.870Z,39.95
2018-08-22T10:28:00.522Z,39.97
2018-08-22T10:30:30.673Z,39.83
2018-08-22T10:33:02.117Z,40.84
2018-08-22T10:35:32.742Z,41.31
2018-08-22T10:38:03.369Z,39.91
2018-08-22T10:40:34.718Z,39.53
2018-08-22T10:43:05.782Z,40.20
2018-08-22T10:45:36.090Z,39.70
2018-08-22T10:48:06.367Z,38.94
2018-08-22T10:50:37.464Z,38.98
2018-08-22T10:53:08.080Z,39.43
2018-08-22T10:55:38.504Z,39.24
2018-08-22T10:58:08.525Z,40.54
2018-08-22T11:00:40.212Z,40.81
2018-08-22T11:03:11.704Z,40.03
2018-08-22T11:05:42.776Z,40.71
2018-08-22T11:08:14.752Z,40.25
2018-08-22T11:10:45.451Z,41.25
2018-08-22T11:13:15.689Z,40.73
2018-08-22T11:15:47.292Z,40.27
2018-08-22T11:18:17.984Z,40.18
2018-08-22T11:20:50.787Z,40.68
2018-08-22T11:23:33.465Z,41.23
2018-08-22T11:26:16.189Z,39.27
2018-08-22T11:28:57.730Z,39.77
2018-08-22T11:31:41.463Z,40.45
2018-08-22T11:34:24.832Z,38.10
2018-08-22T11:37:17.793Z,36.72
2018-08-22T11:39:49.274Z,37.06
2018-08-22T11:42:21.141Z,37.32
2018-08-22T11:44:51.315Z,36.64
2018-08-22T11:47:23.709Z,36.30
2018-08-22T11:49:54.109Z,36.16
2018-08-22T11:52:25.109Z,38.73
2018-08-22T11:54:55.736Z,39.38
2018-08-22T11:57:26.828Z,41.13
2018-08-22T11:59:57.235Z,41.97
2018-08-22T12:02:27.900Z,42.90
2018-08-22T12:04:58.077Z,44.10
2018-08-22T12:07:29.906Z,42.26
2018-08-22T12:10:01.103Z,39.35
2018-08-22T12:12:33.055Z,37.94
2018-08-22T12:15:03.711Z,38.41
2018-08-22T12:17:34.097Z,40.32
2018-08-22T12:20:04.799Z,38.12
2018-08-22T12:22:36.305Z,39.08
2018-08-22T12:25:07.017Z,41.34
2018-08-22T12:27:38.402Z,41.71
2018-08-22T12:30:10.779Z,44.00
2018-08-22T12:32:41.015Z,44.45
2018-08-22T12:35:11.716Z,45.22
2018-08-22T12:37:43.108Z,46.15
2018-08-22T12:40:15.147Z,46.45
2018-08-22T12:42:45.555Z,47.04
2018-08-22T12:45:17.789Z,46.38
2018-08-22T12:47:48.751Z,46.09
2018-08-22T12:50:19.801Z,45.01
2018-08-22T12:52:50.476Z,43.90
2018-08-22T12:55:21.647Z,44.16
2018-08-22T12:57:51.759Z,41.74
2018-08-22T13:00:22.718Z,42.25
2018-08-22T13:02:53.601Z,41.61
2018-08-22T13:05:25.255Z,41.27
2018-08-22T13:07:55.793Z,41.69
2018-08-22T13:10:25.984Z,41.18
2018-08-22T13:12:56.654Z,41.32
2018-08-22T13:15:27.385Z,38.90
2018-08-22T13:17:57.909Z,37.23
2018-08-22T13:20:28.434Z,36.22
2018-08-22T13:22:59.546Z,35.47
2018-08-22T13:25:30.620Z,36.88
2018-08-22T13:28:01.094Z,37.34
2018-08-22T13:30:32.354Z,36.47
2018-08-22T13:33:05.180Z,39.12
2018-08-22T13:35:36.120Z,40.37
2018-08-22T13:38:07.622Z,40.92
2018-08-22T13:40:37.896Z,40.31
2018-08-22T13:43:09.726Z,41.25
2018-08-22T13:45:40.788Z,41.51
2018-08-22T13:48:11.795Z,42.26
2018-08-22T13:50:42.422Z,42.05
2018-08-22T13:53:12.737Z,42.78
2018-08-22T13:55:44.282Z,43.32
2018-08-22T13:58:15.327Z,42.39
2018-08-22T14:00:46.038Z,42.57
2018-08-22T14:03:18.464Z,43.09
2018-08-22T14:05:50.177Z,43.19
2018-08-22T14:08:21.326Z,42.98
2018-08-22T14:10:51.783Z,44.74
2018-08-22T14:13:23.079Z,45.98
2018-08-22T14:15:54.252Z,44.73
2018-08-22T14:18:25.340Z,41.99
2018-08-22T14:20:56.306Z,42.35
2018-08-22T14:23:27.396Z,43.45
2018-08-22T14:25:57.874Z,44.96
2018-08-22T14:28:30.963Z,45.66
2018-08-22T14:31:01.859Z,45.91
2018-08-22T14:33:32.528Z,44.96
2018-08-22T14:36:04.136Z,45.11
2018-08-22T14:38:35.031Z,42.97
2018-08-22T14:41:05.276Z,40.16
2018-08-22T14:43:37.647Z,38.30
2018-08-22T14:46:09.880Z,37.24
2018-08-22T14:48:39.974Z,36.27
2018-08-22T14:51:10.120Z,35.71
2018-08-22T14:53:40.589Z,35.93
2018-08-22T14:56:11.197Z,36.36
2018-08-22T14:58:41.862Z,36.45
2018-08-22T15:01:16.057Z,36.35
2018-08-22T15:03:46.125Z,36.79
2018-08-22T15:06:17.344Z,37.16
2018-08-22T15:08:48.397Z,38.68
2018-08-22T15:11:20.254Z,40.20
2018-08-22T15:13:50.525Z,39.37
2018-08-22T15:16:21.592Z,38.09
2018-08-22T15:18:51.949Z,37.91
2018-08-22T15:21:22.107Z,39.48
2018-08-22T15:23:53.265Z,38.34
2018-08-22T15:26:26.049Z,37.07
2018-08-22T15:28:57.211Z,36.55
2018-08-22T15:31:27.477Z,36.46
2018-08-22T15:33:58.095Z,37.30
2018-08-22T15:36:29.064Z,37.23
2018-08-22T15:38:59.246Z,38.37
2018-08-22T15:41:29.772Z,39.46
2018-08-22T15:44:00.095Z,39.32
2018-08-22T15:46:31.599Z,38.17
2018-08-22T15:49:01.689Z,37.98
2018-08-22T15:51:32.601Z,39.12
2018-08-22T15:54:13.694Z,39.66
2018-08-22T15:56:45.085Z,38.99
2018-08-22T15:59:15.829Z,37.80
2018-08-22T16:01:48.583Z,38.09
2018-08-22T16:04:18.764Z,38.27
2018-08-22T16:07:09.711Z,38.64
2018-08-22T16:09:40.716Z,37.96
2018-08-22T16:12:11.235Z,37.00
2018-08-22T16:14:42.064Z,36.44
2018-08-22T16:17:13.309Z,35.92
2018-08-22T16:19:45.159Z,35.59
2018-08-22T16:22:19.643Z,35.20
2018-08-22T16:24:51.026Z,35.00
2018-08-22T16:27:21.244Z,34.65
2018-08-22T16:29:51.352Z,34.50
2018-08-22T16:32:22.051Z,34.60
2018-08-22T16:34:53.747Z,34.76
2018-08-22T16:40:05.819Z,35.51
2018-08-22T16:42:38.464Z,35.91
2018-08-22T16:45:09.450Z,36.18
2018-08-22T16:47:40.133Z,35.69
2018-08-22T16:50:10.615Z,35.30
2018-08-22T16:52:40.769Z,35.04
2018-08-22T16:55:21.070Z,34.76
2018-08-22T16:57:52.800Z,34.69
2018-08-22T17:00:29.901Z,34.87
2018-08-22T17:03:01.053Z,35.12
2018-08-22T17:05:31.829Z,35.21
2018-08-22T17:08:03.859Z,35.20
2018-08-22T17:10:47.184Z,35.21
2018-08-22T17:13:26.582Z,35.03
2018-08-22T17:15:58.170Z,34.52
2018-08-22T17:18:28.970Z,34.20
2018-08-22T17:21:00.176Z,33.96
2018-08-22T17:23:31.384Z,33.74
2018-08-22T17:26:01.968Z,33.39
2018-08-22T17:28:38.495Z,33.10
2018-08-22T17:31:10.323Z,32.92
2018-08-22T17:33:41.833Z,32.85
2018-08-22T17:36:14.839Z,32.83
2018-08-22T17:38:48.829Z,32.84
2018-08-22T17:41:21.873Z,32.75
2018-08-22T17:44:10.961Z,32.55
2018-08-22T17:46:43.873Z,32.48
2018-08-22T17:49:15.031Z,32.70
2018-08-22T17:52:14.545Z,32.19
2018-08-22T17:54:45.969Z,31.85
2018-08-22T17:57:21.531Z,31.58
2018-08-22T17:59:52.687Z,31.42
2018-08-22T18:02:23.663Z,31.33
2018-08-22T18:04:56.713Z,31.22
2018-08-22T18:07:29.283Z,31.06
2018-08-22T18:10:02.798Z,30.91
2018-08-22T18:12:33.307Z,30.74
2018-08-22T18:15:04.867Z,30.55
2018-08-22T18:17:37.150Z,30.41
2018-08-22T18:20:07.452Z,30.23
2018-08-22T18:22:39.789Z,30.11
2018-08-22T18:25:10.718Z,29.94
2018-08-22T18:27:43.149Z,29.81
2018-08-22T18:30:13.781Z,29.67
2018-08-22T18:32:45.928Z,29.42
2018-08-22T18:35:16.407Z,29.32
2018-08-22T18:37:46.669Z,29.25
2018-08-22T18:40:18.956Z,29.33
2018-08-22T18:42:52.817Z,29.34
2018-08-22T18:45:24.114Z,29.19
2018-08-22T18:47:54.269Z,29.14
2018-08-22T18:50:24.859Z,29.02
2018-08-22T18:52:57.177Z,28.88
2018-08-22T18:55:29.577Z,28.86
2018-08-22T18:58:01.401Z,28.63
2018-08-22T19:00:38.543Z,28.58
2018-08-22T19:03:09.156Z,28.52
2018-08-22T19:05:40.411Z,28.50
2018-08-22T19:08:14.996Z,28.36
2018-08-22T19:10:52.084Z,28.33
2018-08-22T19:13:23.907Z,28.39
2018-08-22T19:15:59.745Z,28.24
2018-08-22T19:18:30.248Z,28.12
2018-08-22T19:21:03.602Z,28.09
2018-08-22T19:23:35.129Z,27.99
2018-08-22T19:26:06.417Z,27.46
2018-08-22T19:28:53.141Z,27.59
2018-08-22T19:31:24.183Z,27.49
2018-08-22T19:33:55.248Z,27.61
2018-08-22T19:36:26.102Z,27.67
2018-08-22T19:38:57.419Z,27.73
2018-08-22T19:41:33.347Z,27.92
2018-08-22T19:44:05.625Z,27.88
2018-08-22T19:46:36.666Z,27.80
2018-08-22T19:49:07.708Z,27.71
2018-08-22T19:51:37.910Z,27.68
2018-08-22T19:54:09.947Z,27.66
2018-08-22T19:56:40.212Z,27.59
2018-08-22T19:59:12.047Z,27.56
2018-08-22T20:01:44.069Z,27.43
2018-08-22T20:04:15.730Z,27.40
2018-08-22T20:06:47.695Z,27.38
2018-08-22T20:09:18.669Z,27.19
2018-08-22T20:11:50.002Z,27.02
2018-08-22T20:14:20.349Z,26.95
2018-08-22T20:16:51.196Z,26.74
2018-08-22T20:19:21.818Z,26.91
2018-08-22T20:21:53.233Z,26.91
2018-08-22T20:24:25.049Z,26.86
2018-08-22T20:27:03.886Z,26.70
2018-08-22T20:29:36.119Z,26.45
2018-08-22T20:32:11.027Z,26.51
2018-08-22T20:34:45.373Z,26.46
2018-08-22T20:37:15.516Z,26.45
2018-08-22T20:39:47.497Z,26.34
2018-08-22T20:42:17.953Z,26.23
2018-08-22T20:44:48.980Z,26.14
2018-08-22T20:47:19.284Z,26.13
2018-08-22T20:49:51.402Z,26.04
2018-08-22T20:52:21.678Z,25.77
2018-08-22T20:54:58.282Z,25.91
2018-08-22T20:57:29.680Z,25.87
2018-08-22T21:00:00.935Z,25.80
2018-08-22T21:02:31.741Z,25.72
2018-08-22T21:05:04.236Z,25.66
2018-08-22T21:07:39.239Z,25.41
2018-08-22T21:10:10.019Z,25.35
2018-08-22T21:12:40.998Z,25.32
2018-08-22T21:15:11.699Z,25.18
2018-08-22T21:17:44.778Z,24.99
2018-08-22T21:20:22.918Z,25.00
2018-08-22T21:22:56.625Z,24.86
2018-08-22T21:25:27.472Z,24.85
2018-08-22T21:27:57.721Z,24.90
2018-08-22T21:30:28.105Z,25.00
2018-08-22T21:32:59.558Z,24.98
2018-08-22T21:35:30.159Z,24.95
2018-08-22T21:38:09.897Z,24.80
2018-08-22T21:40:40.530Z,24.85
2018-08-22T21:43:13.047Z,24.91
2018-08-22T21:45:44.156Z,24.87
2018-08-22T21:48:20.826Z,24.51
2018-08-22T21:50:52.223Z,24.36
2018-08-22T21:53:22.517Z,24.18
2018-08-22T21:55:53.994Z,24.17
2018-08-22T21:58:25.231Z,24.24
2018-08-22T22:00:55.337Z,24.31
2018-08-22T22:03:32.364Z,24.42
2018-08-22T22:06:04.903Z,24.38
2018-08-22T22:08:35.201Z,24.29
2018-08-22T22:11:07.597Z,23.99
2018-08-22T22:13:38.258Z,23.91
2018-08-22T22:16:11.327Z,24.04
2018-08-22T22:18:43.346Z,23.99
2018-08-22T22:21:15.058Z,23.76
2018-08-22T22:23:47.461Z,23.74
2018-08-22T22:26:19.186Z,23.95
2018-08-22T22:28:49.725Z,23.92
2018-08-22T22:31:20.885Z,23.84
2018-08-22T22:33:53.847Z,23.81
2018-08-22T22:36:24.120Z,23.81
2018-08-22T22:38:54.198Z,23.79
2018-08-22T22:41:26.543Z,23.86
2018-08-22T22:43:59.057Z,23.79
2018-08-22T22:46:29.697Z,23.72
2018-08-22T22:49:01.643Z,23.58
2018-08-22T22:51:32.022Z,23.45
2018-08-22T22:54:04.391Z,23.47
2018-08-22T22:56:35.043Z,23.35
2018-08-22T22:59:05.818Z,23.27
2018-08-22T23:01:36.411Z,23.25
2018-08-22T23:04:07.708Z,23.36
2018-08-22T23:06:38.166Z,23.41
2018-08-22T23:09:08.243Z,23.42
2018-08-22T23:11:38.425Z,23.30
2018-08-22T23:14:08.982Z,23.24
2018-08-22T23:16:40.278Z,23.20
2018-08-22T23:19:14.298Z,23.10
2018-08-22T23:21:45.034Z,23.11
2018-08-22T23:24:22.835Z,23.07
2018-08-22T23:26:53.570Z,22.97
2018-08-22T23:29:23.982Z,22.64
2018-08-22T23:31:54.880Z,22.60
2018-08-22T23:34:25.387Z,22.69
2018-08-22T23:36:56.714Z,22.67
2018-08-22T23:39:29.679Z,22.69
2018-08-22T23:42:00.738Z,22.64
2018-08-22T23:44:31.379Z,22.62
2018-08-22T23:47:03.116Z,22.50
2018-08-22T23:49:35.754Z,22.63
2018-08-22T23:52:06.867Z,22.58
2018-08-22T23:54:41.168Z,22.56
2018-08-22T23:57:13.025Z,22.60
2018-08-22T23:59:44.084Z,22.55
